Time;durP1;ratioP1;P1;durP2;ratioP2;P2;SDS_P1;SDS_P2;PMS_P1;PMS_P2;Temp;Humidity;BMP_temperature;BMP_pressure;BME280_temperature;BME280_humidity;BME280_pressure;Samples;Min_cycle;Max_cycle;Signal;HPM_P1;HPM_P2
2022/07/30 00:01:13;;;;;;;4.03;2.95;;;19.60;99.90;;;;;;4954882;29;20023;-61
2022/07/30 00:03:38;;;;;;;3.85;3.00;;;19.50;99.90;;;;;;4953577;29;20055;-61
2022/07/30 00:06:04;;;;;;;6.07;2.92;;;19.60;99.90;;;;;;4954750;29;20386;-61
2022/07/30 00:08:30;;;;;;;3.03;2.60;;;19.60;99.90;;;;;;4954698;29;20031;-61
2022/07/30 00:10:55;;;;;;;3.95;2.80;;;19.60;99.90;;;;;;4953599;29;20055;-61
2022/07/30 00:13:21;;;;;;;4.60;2.90;;;19.60;99.90;;;;;;4969555;28;20038;-61
2022/07/30 00:15:46;;;;;;;5.47;2.70;;;19.50;99.90;;;;;;4958035;29;20050;-61
2022/07/30 00:18:12;;;;;;;4.05;2.85;;;19.50;99.90;;;;;;4958390;29;20094;-61
2022/07/30 00:20:39;;;;;;;3.60;2.50;;;19.40;99.90;;;;;;4973194;28;20398;-61
2022/07/30 00:23:05;;;;;;;4.43;2.97;;;19.40;99.90;;;;;;4957103;29;20031;-61
2022/07/30 00:25:31;;;;;;;3.83;2.90;;;19.40;99.90;;;;;;4958057;29;20024;-61
2022/07/30 00:27:57;;;;;;;8.93;3.20;;;19.40;99.90;;;;;;4956663;29;20031;-61
2022/07/30 00:30:23;;;;;;;5.20;3.00;;;19.30;99.90;;;;;;4957065;29;20024;-61
2022/07/30 00:32:49;;;;;;;5.25;2.85;;;19.20;99.90;;;;;;4956868;29;20024;-61
2022/07/30 00:35:15;;;;;;;3.40;3.08;;;19.10;99.90;;;;;;4957842;29;20031;-61
2022/07/30 00:37:40;;;;;;;2.75;2.55;;;19.00;99.90;;;;;;4957771;29;20114;-61
2022/07/30 00:40:07;;;;;;;4.57;2.88;;;19.00;99.90;;;;;;4956730;29;20078;-61
2022/07/30 00:42:44;;;;;;;5.38;2.88;;;19.00;99.90;;;;;;4957729;29;20030;-61
2022/07/30 00:45:11;;;;;;;3.45;2.40;;;18.90;99.90;;;;;;4973675;28;20031;-61
2022/07/30 00:47:37;;;;;;;3.70;2.80;;;19.00;99.90;;;;;;4957901;29;20054;-61
2022/07/30 00:50:06;;;;;;;4.43;2.97;;;19.00;99.90;;;;;;4956389;29;20089;-61
2022/07/30 00:52:32;;;;;;;4.47;2.92;;;19.00;99.90;;;;;;4957568;29;20074;-61
2022/07/30 00:54:58;;;;;;;5.45;3.47;;;18.90;99.90;;;;;;4957757;29;20446;-61
2022/07/30 00:57:25;;;;;;;3.60;3.05;;;18.70;99.90;;;;;;4957270;29;20054;-61
2022/07/30 00:59:51;;;;;;;3.75;2.75;;;18.60;99.90;;;;;;4957317;29;20027;-61
2022/07/30 01:02:16;;;;;;;3.38;2.80;;;18.50;99.90;;;;;;4956442;29;20030;-61
2022/07/30 01:04:43;;;;;;;3.38;3.08;;;18.50;99.90;;;;;;4972433;28;20378;-61
2022/07/30 01:07:09;;;;;;;4.78;2.92;;;18.40;99.90;;;;;;4956854;29;20019;-61
2022/07/30 01:09:35;;;;;;;3.75;2.80;;;18.40;99.90;;;;;;4957165;29;20035;-61
2022/07/30 01:12:02;;;;;;;6.93;2.88;;;18.40;99.90;;;;;;4955946;29;20371;-61
2022/07/30 01:14:27;;;;;;;5.97;5.03;;;18.30;99.90;;;;;;4956115;29;20030;-61
2022/07/30 01:16:53;;;;;;;6.38;4.30;;;18.30;99.90;;;;;;4956051;29;20027;-61
2022/07/30 01:22:20;;;;;;;3.58;2.40;;;18.30;99.90;;;;;;4957254;29;20026;-61
2022/07/30 01:25:10;;;;;;;4.13;2.75;;;18.20;99.90;;;;;;4955263;28;20074;-61
2022/07/30 01:27:59;;;;;;;4.05;2.97;;;18.10;99.90;;;;;;4955327;29;20063;-61
2022/07/30 01:30:28;;;;;;;4.57;2.60;;;18.00;99.90;;;;;;4956787;28;20031;-61
2022/07/30 01:32:56;;;;;;;4.03;2.65;;;17.90;99.90;;;;;;4956688;29;20019;-61
2022/07/30 01:35:24;;;;;;;3.47;2.65;;;17.90;99.90;;;;;;4955565;29;20023;-61
2022/07/30 01:37:53;;;;;;;4.25;2.50;;;18.00;99.90;;;;;;4956208;29;20042;-61
2022/07/30 01:40:19;;;;;;;5.00;3.05;;;18.10;99.90;;;;;;4956573;29;20106;-61
2022/07/30 01:42:48;;;;;;;5.15;3.15;;;18.10;99.90;;;;;;4956640;29;20393;-61
2022/07/30 01:45:16;;;;;;;5.90;3.47;;;18.00;99.90;;;;;;4955552;29;20026;-61
2022/07/30 01:47:43;;;;;;;3.90;3.40;;;17.80;99.90;;;;;;4955385;29;20027;-61
2022/07/30 01:50:14;;;;;;;6.80;3.83;;;17.60;99.90;;;;;;4971618;28;20031;-61
2022/07/30 01:52:44;;;;;;;6.65;3.47;;;17.50;99.90;;;;;;4956992;29;20059;-61
2022/07/30 01:55:14;;;;;;;5.30;3.75;;;17.40;99.90;;;;;;4956377;29;20028;-61
2022/07/30 01:57:40;;;;;;;7.78;4.10;;;17.40;99.90;;;;;;4971060;28;20071;-61
2022/07/30 02:00:07;;;;;;;7.97;3.83;;;17.40;99.90;;;;;;4956199;29;20023;-61
2022/07/30 02:02:37;;;;;;;5.85;2.90;;;17.30;99.90;;;;;;4956203;29;20042;-61
2022/07/30 02:05:04;;;;;;;5.78;3.38;;;17.30;99.90;;;;;;4954912;29;20055;-61
2022/07/30 02:07:44;;;;;;;3.88;2.78;;;17.30;99.90;;;;;;4956166;29;20390;-61
2022/07/30 02:10:33;;;;;;;5.60;3.65;;;17.40;99.90;;;;;;4954890;29;20027;-61
2022/07/30 02:13:01;;;;;;;4.70;3.17;;;17.40;99.90;;;;;;4956016;29;20023;-61
2022/07/30 02:15:58;;;;;;;4.22;3.10;;;17.40;99.90;;;;;;4970940;28;20059;-61
2022/07/30 02:18:46;;;;;;;4.43;3.22;;;17.40;99.90;;;;;;4954776;29;20027;-61
2022/07/30 02:21:16;;;;;;;4.47;3.60;;;17.20;99.90;;;;;;4954555;29;20032;-61
2022/07/30 02:23:45;;;;;;;9.48;3.20;;;17.30;99.90;;;;;;4954962;28;20034;-61
2022/07/30 02:26:17;;;;;;;5.38;4.00;;;17.30;99.90;;;;;;4954537;29;20031;-61
2022/07/30 02:28:46;;;;;;;4.40;3.17;;;17.20;99.90;;;;;;4954647;28;20027;-61
2022/07/30 02:31:13;;;;;;;6.18;3.45;;;17.20;99.90;;;;;;4955712;29;20038;-61
2022/07/30 02:33:41;;;;;;;5.03;3.83;;;17.10;99.90;;;;;;4955748;28;20031;-61
2022/07/30 02:36:09;;;;;;;5.05;3.63;;;17.10;99.90;;;;;;4954248;28;20027;-61
2022/07/30 02:38:36;;;;;;;3.35;2.92;;;17.10;99.90;;;;;;4970764;28;20023;-61
2022/07/30 02:41:06;;;;;;;4.25;3.50;;;17.20;99.90;;;;;;4955790;29;20019;-62
2022/07/30 02:43:33;;;;;;;4.25;3.70;;;17.30;99.90;;;;;;4955192;29;20031;-62
2022/07/30 02:46:00;;;;;;;7.15;3.50;;;17.30;99.90;;;;;;4955612;29;20038;-61
2022/07/30 02:48:27;;;;;;;5.00;3.90;;;17.30;99.90;;;;;;4954589;29;20031;-62
2022/07/30 02:50:54;;;;;;;4.68;3.25;;;17.20;99.90;;;;;;4955049;29;20050;-61
2022/07/30 02:53:22;;;;;;;5.07;3.25;;;17.00;99.90;;;;;;4955407;29;20043;-60
2022/07/30 02:55:49;;;;;;;5.97;3.78;;;17.00;99.90;;;;;;4970480;28;20036;-61
2022/07/30 02:58:18;;;;;;;5.47;3.70;;;17.10;99.90;;;;;;4954140;29;20023;-61
2022/07/30 03:00:45;;;;;;;4.70;3.33;;;17.00;99.90;;;;;;4955378;29;20020;-62
2022/07/30 03:03:12;;;;;;;4.32;3.83;;;17.10;99.90;;;;;;4954297;29;20046;-61
2022/07/30 03:06:13;;;;;;;7.38;3.88;;;17.10;99.90;;;;;;4954406;29;20035;-62
2022/07/30 03:08:40;;;;;;;5.25;4.30;;;17.00;99.90;;;;;;4954063;29;20055;-61
2022/07/30 03:11:09;;;;;;;8.23;3.78;;;16.90;99.90;;;;;;4955229;29;20046;-61
2022/07/30 03:13:34;;;;;;;6.07;4.38;;;16.90;99.90;;;;;;4953979;29;20023;-61
2022/07/30 03:16:03;;;;;;;6.15;3.90;;;16.90;99.90;;;;;;4953937;29;20394;-61
2022/07/30 03:18:35;;;;;;;4.70;3.45;;;16.90;99.90;;;;;;4953861;29;20114;-62
2022/07/30 03:21:02;;;;;;;5.13;3.63;;;17.00;99.90;;;;;;4954589;29;20027;-62
2022/07/30 03:23:32;;;;;;;5.72;3.58;;;17.10;99.90;;;;;;4953889;29;20030;-61
2022/07/30 03:26:01;;;;;;;6.57;3.67;;;17.10;99.90;;;;;;4953837;29;20031;-62
2022/07/30 03:28:30;;;;;;;5.05;4.07;;;17.10;99.90;;;;;;4955019;29;20031;-61
2022/07/30 03:30:56;;;;;;;5.82;3.83;;;17.00;99.90;;;;;;4955632;29;20109;-62
2022/07/30 03:33:23;;;;;;;11.05;6.20;;;16.90;99.90;;;;;;4955154;29;20043;-61
2022/07/30 03:35:50;;;;;;;22.85;12.15;;;16.90;99.90;;;;;;4954930;29;20050;-60
2022/07/30 03:38:16;;;;;;;6.30;3.78;;;16.90;99.90;;;;;;4955182;28;20019;-61
2022/07/30 03:40:43;;;;;;;5.20;4.05;;;16.90;99.90;;;;;;4955059;29;20075;-61
2022/07/30 03:43:11;;;;;;;5.05;3.65;;;16.90;99.90;;;;;;4953737;29;20024;-61
2022/07/30 03:45:38;;;;;;;7.28;3.70;;;16.90;99.90;;;;;;4953746;29;20100;-62
2022/07/30 03:48:07;;;;;;;8.32;4.30;;;16.80;99.90;;;;;;4953943;28;20058;-61
2022/07/30 03:50:35;;;;;;;5.85;3.90;;;16.70;99.90;;;;;;4958315;29;20042;-61
2022/07/30 03:53:03;;;;;;;7.30;4.15;;;16.70;99.90;;;;;;4958601;29;20027;-62
2022/07/30 03:55:29;;;;;;;6.90;3.17;;;16.70;99.90;;;;;;4957392;29;20023;-61
2022/07/30 03:57:55;;;;;;;7.53;3.60;;;16.80;99.90;;;;;;4957093;29;20055;-61
2022/07/30 04:00:21;;;;;;;7.43;3.40;;;16.80;99.90;;;;;;4958417;29;20078;-62
2022/07/30 04:02:47;;;;;;;7.57;3.45;;;16.70;99.90;;;;;;4958489;29;20027;-61
2022/07/30 04:05:14;;;;;;;6.95;3.67;;;16.70;99.90;;;;;;4956998;29;20046;-62
2022/07/30 04:07:40;;;;;;;11.25;3.90;;;16.60;99.90;;;;;;4973360;28;20047;-61
2022/07/30 04:10:06;;;;;;;4.75;3.63;;;16.60;99.90;;;;;;4957221;29;20034;-61
2022/07/30 04:12:32;;;;;;;6.35;4.30;;;16.50;99.90;;;;;;4957291;29;20418;-61
2022/07/30 04:14:58;;;;;;;5.50;3.38;;;16.50;99.90;;;;;;4957013;29;20027;-61
2022/07/30 04:17:30;;;;;;;7.78;3.50;;;16.40;99.90;;;;;;4958068;29;20367;-61
2022/07/30 04:20:01;;;;;;;6.82;4.70;;;16.40;99.90;;;;;;4958078;29;20027;-61
2022/07/30 04:22:30;;;;;;;8.80;3.97;;;16.50;99.90;;;;;;4958411;29;20024;-61
2022/07/30 04:24:57;;;;;;;4.30;3.53;;;16.60;99.90;;;;;;4958026;29;20030;-61
2022/07/30 04:27:24;;;;;;;6.53;3.53;;;16.70;99.90;;;;;;4956730;29;20034;-61
2022/07/30 04:29:54;;;;;;;4.13;3.60;;;16.70;99.90;;;;;;4956933;29;20051;-61
2022/07/30 04:32:20;;;;;;;6.90;3.33;;;16.80;99.90;;;;;;4957915;29;20082;-61
2022/07/30 04:34:48;;;;;;;3.92;3.30;;;16.80;99.90;;;;;;4956604;29;20118;-61
2022/07/30 04:37:18;;;;;;;14.45;5.35;;;16.90;99.90;;;;;;4956977;29;20118;-61
2022/07/30 04:39:44;;;;;;;4.57;3.22;;;16.80;99.90;;;;;;4957741;29;20031;-61
2022/07/30 04:42:10;;;;;;;5.70;3.33;;;16.70;99.90;;;;;;4972971;28;20020;-61
2022/07/30 04:44:36;;;;;;;5.78;3.80;;;16.80;99.90;;;;;;4957726;29;20050;-61
2022/07/30 04:47:02;;;;;;;4.60;3.42;;;16.90;99.90;;;;;;4956394;29;20028;-61
2022/07/30 04:49:29;;;;;;;6.57;3.50;;;16.90;99.90;;;;;;4956205;29;20430;-61
2022/07/30 04:51:55;;;;;;;6.93;3.83;;;17.00;99.90;;;;;;4956380;29;20063;-61
2022/07/30 04:54:24;;;;;;;6.05;3.38;;;17.10;99.90;;;;;;4956628;29;20027;-62
2022/07/30 04:56:50;;;;;;;5.68;3.28;;;17.10;99.90;;;;;;4956552;29;20027;-61
2022/07/30 04:59:17;;;;;;;5.65;3.40;;;17.20;99.90;;;;;;4955913;28;20027;-61
2022/07/30 05:01:48;;;;;;;4.75;3.70;;;17.30;99.90;;;;;;4956230;29;20055;-62
2022/07/30 05:04:15;;;;;;;4.40;3.35;;;17.50;99.90;;;;;;4972345;28;20030;-61
2022/07/30 05:06:42;;;;;;;5.30;3.65;;;17.70;99.90;;;;;;4956097;28;20086;-61
2022/07/30 05:09:08;;;;;;;4.50;3.22;;;17.90;99.90;;;;;;4957276;29;20035;-62
2022/07/30 05:11:33;;;;;;;4.93;4.10;;;18.10;99.90;;;;;;4957170;29;20027;-61
2022/07/30 05:13:59;;;;;;;4.68;3.05;;;18.30;99.90;;;;;;4957147;29;20054;-62
2022/07/30 05:16:25;;;;;;;5.82;3.58;;;18.50;99.90;;;;;;4956149;29;20027;-61
2022/07/30 05:18:51;;;;;;;7.22;4.20;;;18.60;99.90;;;;;;4955732;29;20077;-61
2022/07/30 05:21:16;;;;;;;6.65;4.50;;;18.40;99.90;;;;;;4957547;29;20355;-61
2022/07/30 05:23:42;;;;;;;4.88;3.85;;;18.40;99.90;;;;;;4957500;29;20027;-62
2022/07/30 05:26:07;;;;;;;7.10;4.60;;;18.50;99.90;;;;;;4955628;29;20027;-62
2022/07/30 05:28:33;;;;;;;6.00;4.50;;;18.70;99.90;;;;;;4957167;29;20027;-62
2022/07/30 05:30:59;;;;;;;6.43;4.30;;;19.00;99.90;;;;;;4957109;29;20098;-62
2022/07/30 05:33:24;;;;;;;4.45;3.63;;;19.10;99.90;;;;;;4956771;29;20028;-61
2022/07/30 05:35:50;;;;;;;7.93;4.57;;;19.30;99.90;;;;;;4956737;29;20031;-60
2022/07/30 05:38:16;;;;;;;7.60;4.28;;;19.70;99.90;;;;;;4955844;29;20023;-61
2022/07/30 05:40:43;;;;;;;5.80;4.07;;;20.00;99.90;;;;;;4956921;29;20095;-62
2022/07/30 05:43:09;;;;;;;7.32;4.30;;;20.20;99.90;;;;;;4957281;29;20100;-61
2022/07/30 05:45:35;;;;;;;5.05;3.45;;;20.10;99.90;;;;;;4955566;29;20023;-61
2022/07/30 05:48:01;;;;;;;7.93;4.45;;;20.20;99.90;;;;;;4956677;29;20042;-62
2022/07/30 05:50:26;;;;;;;6.63;4.18;;;20.30;99.90;;;;;;4956801;29;20113;-62
2022/07/30 05:52:52;;;;;;;6.10;3.60;;;20.50;99.90;;;;;;4956757;29;20033;-62
2022/07/30 05:55:18;;;;;;;6.32;3.72;;;20.60;99.90;;;;;;4955321;29;20023;-62
2022/07/30 05:57:43;;;;;;;5.90;3.90;;;20.70;99.90;;;;;;4955480;29;20110;-61
2022/07/30 06:00:10;;;;;;;6.35;3.75;;;20.90;99.90;;;;;;4954979;29;20023;-64
2022/07/30 06:02:38;;;;;;;8.27;4.03;;;21.50;99.90;;;;;;4956442;29;20031;-61
2022/07/30 06:05:04;;;;;;;6.18;3.85;;;22.20;99.90;;;;;;4955243;29;20100;-61
2022/07/30 06:07:29;;;;;;;4.55;3.60;;;22.90;99.90;;;;;;4954966;28;20043;-64
2022/07/30 06:09:58;;;;;;;7.03;3.95;;;23.60;99.90;;;;;;4956058;29;20490;-64
2022/07/30 06:12:27;;;;;;;3.92;3.10;;;24.20;99.90;;;;;;4955163;28;20031;-64
2022/07/30 06:14:53;;;;;;;6.68;4.30;;;24.80;99.90;;;;;;4955111;29;20023;-64
2022/07/30 06:17:19;;;;;;;6.07;4.40;;;25.30;99.90;;;;;;4955967;29;20035;-64
2022/07/30 06:19:45;;;;;;;5.93;4.30;;;25.60;99.90;;;;;;4955891;29;20027;-64
2022/07/30 06:22:11;;;;;;;10.25;4.32;;;26.00;99.90;;;;;;4955981;29;20059;-64
2022/07/30 06:24:36;;;;;;;6.60;3.85;;;26.60;99.90;;;;;;4955887;29;20074;-65
2022/07/30 06:27:02;;;;;;;6.53;3.72;;;27.20;99.90;;;;;;4955870;29;20031;-65
2022/07/30 06:29:28;;;;;;;7.35;3.28;;;27.80;99.90;;;;;;4954495;29;20567;-65
2022/07/30 06:31:54;;;;;;;4.70;4.00;;;28.50;99.90;;;;;;4955845;29;20114;-65
2022/07/30 06:34:19;;;;;;;7.82;3.58;;;29.10;99.90;;;;;;4954924;29;20023;-62
2022/07/30 06:36:45;;;;;;;5.45;4.15;;;29.50;99.90;;;;;;4955254;29;20244;-62
2022/07/30 06:39:11;;;;;;;5.55;4.10;;;29.80;99.90;;;;;;4955884;29;20110;-61
2022/07/30 06:41:37;;;;;;;5.07;3.90;;;30.10;99.90;;;;;;4954816;29;20026;-60
2022/07/30 06:44:03;;;;;;;5.55;3.45;;;30.30;99.90;;;;;;4956066;29;20030;-61
2022/07/30 06:46:28;;;;;;;4.80;3.75;;;30.40;99.90;;;;;;4954920;29;20041;-61
2022/07/30 06:48:54;;;;;;;6.82;3.88;;;30.10;99.90;;;;;;4956434;29;20054;-61
2022/07/30 06:51:19;;;;;;;6.97;3.97;;;29.90;99.90;;;;;;4955125;29;20042;-61
2022/07/30 06:53:45;;;;;;;12.57;5.95;;;30.20;99.90;;;;;;4955584;29;20041;-61
2022/07/30 06:56:12;;;;;;;6.57;4.20;;;31.00;99.60;;;;;;4954287;29;20487;-59
2022/07/30 06:58:38;;;;;;;7.68;3.88;;;31.40;97.50;;;;;;4954380;29;20035;-60
2022/07/30 07:01:03;;;;;;;7.55;3.10;;;31.80;97.30;;;;;;4954151;29;20030;-61
2022/07/30 07:03:29;;;;;;;14.13;3.70;;;32.20;96.70;;;;;;4955334;29;20019;-61
2022/07/30 07:05:54;;;;;;;8.05;4.20;;;32.80;94.70;;;;;;4955593;29;20054;-60
2022/07/30 07:08:20;;;;;;;8.32;4.18;;;33.30;93.70;;;;;;4955407;29;20023;-61
2022/07/30 07:10:46;;;;;;;6.40;4.88;;;33.60;91.60;;;;;;4955387;29;20023;-61
2022/07/30 07:13:13;;;;;;;5.93;3.83;;;33.90;90.50;;;;;;4955499;29;20039;-61
2022/07/30 07:15:38;;;;;;;6.82;3.58;;;34.30;89.00;;;;;;4953936;29;20019;-61
2022/07/30 07:18:05;;;;;;;9.32;5.57;;;34.50;88.10;;;;;;4955794;29;20217;-61
2022/07/30 07:20:34;;;;;;;5.47;3.38;;;35.10;84.70;;;;;;4954480;28;20040;-60
2022/07/30 07:23:00;;;;;;;7.45;3.47;;;35.80;83.50;;;;;;4955226;28;20027;-61
2022/07/30 07:25:26;;;;;;;7.13;3.85;;;35.70;82.50;;;;;;4957381;29;20028;-60
2022/07/30 07:27:52;;;;;;;4.53;3.17;;;36.00;78.70;;;;;;4957825;29;20035;-61
2022/07/30 07:30:17;;;;;;;7.25;4.07;;;36.00;79.10;;;;;;4973923;28;20115;-61
2022/07/30 07:32:43;;;;;;;7.15;3.40;;;36.30;76.10;;;;;;4958879;29;20063;-61
2022/07/30 07:35:08;;;;;;;4.00;3.58;;;36.80;74.80;;;;;;4958959;29;20031;-59
2022/07/30 07:37:34;;;;;;;13.07;3.65;;;37.00;73.60;;;;;;4958380;29;20074;-61
2022/07/30 07:40:00;;;;;;;6.85;4.30;;;37.00;73.30;;;;;;4958793;29;20015;-61
2022/07/30 07:42:25;;;;;;;8.63;5.18;;;37.30;71.80;;;;;;4959506;29;20023;-61
2022/07/30 07:44:51;;;;;;;3.90;3.50;;;36.90;71.20;;;;;;4957521;29;20024;-61
2022/07/30 07:47:17;;;;;;;6.15;3.60;;;37.00;71.30;;;;;;4958800;29;20031;-60
2022/07/30 07:49:42;;;;;;;5.13;3.13;;;37.20;70.40;;;;;;4957396;29;20043;-61
2022/07/30 07:52:08;;;;;;;5.90;2.90;;;37.60;69.80;;;;;;4957728;29;20051;-61
2022/07/30 07:54:33;;;;;;;7.65;4.72;;;38.10;71.20;;;;;;4958927;29;20109;-60
2022/07/30 07:56:59;;;;;;;6.63;2.70;;;38.60;64.80;;;;;;4957245;29;20054;-61
2022/07/30 07:59:25;;;;;;;7.82;4.07;;;38.60;66.40;;;;;;4958808;29;20098;-61
2022/07/30 08:01:50;;;;;;;5.90;3.35;;;38.90;64.00;;;;;;4958261;28;20031;-60
2022/07/30 08:04:16;;;;;;;8.68;3.60;;;39.50;63.70;;;;;;4958374;29;20110;-61
2022/07/30 08:06:42;;;;;;;4.45;3.33;;;39.70;62.30;;;;;;4958572;29;20505;-61
2022/07/30 08:09:08;;;;;;;5.07;3.22;;;39.60;63.20;;;;;;4958658;29;20031;-61
2022/07/30 08:11:33;;;;;;;8.93;4.15;;;39.80;61.70;;;;;;4958986;29;20023;-61
2022/07/30 08:13:59;;;;;;;5.05;3.58;;;39.60;61.40;;;;;;4958618;29;20082;-61
2022/07/30 08:16:24;;;;;;;7.90;4.45;;;40.00;62.00;;;;;;4958434;29;20031;-59
2022/07/30 08:18:50;;;;;;;9.43;3.80;;;39.80;61.20;;;;;;4957961;29;20023;-61
2022/07/30 08:21:16;;;;;;;8.43;3.60;;;40.30;59.10;;;;;;4974900;28;20024;-61
2022/07/30 08:23:41;;;;;;;9.32;3.75;;;40.80;59.50;;;;;;4958814;28;20367;-61
2022/07/30 08:26:07;;;;;;;5.00;3.20;;;41.10;57.50;;;;;;4960234;29;20027;-59
2022/07/30 08:28:34;;;;;;;8.23;4.50;;;41.30;57.50;;;;;;4975005;28;20058;-61
2022/07/30 08:31:00;;;;;;;5.82;3.10;;;41.40;56.00;;;;;;4957775;29;20027;-61
2022/07/30 08:33:26;;;;;;;8.02;3.40;;;41.30;56.60;;;;;;4960369;29;20034;-61
2022/07/30 08:35:51;;;;;;;5.85;3.00;;;41.80;56.10;;;;;;4959556;28;20031;-60
2022/07/30 08:38:17;;;;;;;9.55;3.83;;;42.20;55.10;;;;;;4959111;29;20027;-62
2022/07/30 08:40:42;;;;;;;8.40;3.72;;;42.40;54.00;;;;;;4960565;29;20559;-61
2022/07/30 08:43:08;;;;;;;7.28;4.88;;;42.20;54.40;;;;;;4959099;29;20062;-61
2022/07/30 08:45:35;;;;;;;7.30;3.20;;;42.40;53.80;;;;;;4960351;29;20103;-61
2022/07/30 08:48:05;;;;;;;6.28;3.17;;;42.60;53.40;;;;;;4958454;29;20096;-60
2022/07/30 08:50:31;;;;;;;9.48;3.33;;;42.20;53.50;;;;;;4957656;29;20042;-61
2022/07/30 08:52:57;;;;;;;5.13;3.25;;;42.30;52.20;;;;;;4973660;28;20027;-61
2022/07/30 08:55:23;;;;;;;6.38;3.08;;;42.10;52.30;;;;;;4958810;29;20033;-61
2022/07/30 08:57:50;;;;;;;4.80;2.85;;;41.90;52.70;;;;;;4959352;29;20030;-61
2022/07/30 09:00:16;;;;;;;4.28;2.80;;;42.20;51.40;;;;;;4957803;29;20026;-61
2022/07/30 09:02:42;;;;;;;11.55;3.20;;;42.80;50.70;;;;;;4975017;28;20038;-59
2022/07/30 09:05:09;;;;;;;5.97;3.10;;;42.40;51.80;;;;;;4957629;28;20027;-61
2022/07/30 09:07:36;;;;;;;4.20;2.80;;;42.40;51.30;;;;;;4957466;29;20118;-61
2022/07/30 09:10:03;;;;;;;6.97;2.70;;;42.40;50.80;;;;;;4958086;28;20032;-61
2022/07/30 09:12:34;;;;;;;5.03;3.22;;;42.80;50.70;;;;;;4958010;29;20023;-61
2022/07/30 09:15:11;;;;;;;4.05;2.80;;;42.80;51.40;;;;;;4974178;28;20031;-61
2022/07/30 09:17:50;;;;;;;6.43;2.50;;;43.20;49.50;;;;;;4956931;29;20027;-61
2022/07/30 09:20:16;;;;;;;4.95;2.80;;;42.60;49.90;;;;;;4957222;29;20020;-61
2022/07/30 09:22:48;;;;;;;9.30;6.60;;;42.00;49.40;;;;;;4957217;28;20028;-61
2022/07/30 09:25:14;;;;;;;7.68;3.20;;;40.60;49.90;;;;;;4957180;29;20057;-61
2022/07/30 09:27:45;;;;;;;3.90;2.33;;;39.90;51.60;;;;;;4955884;29;20062;-61
2022/07/30 09:30:11;;;;;;;5.07;2.15;;;40.10;51.50;;;;;;4955843;29;20074;-60
2022/07/30 09:32:48;;;;;;;4.25;2.30;;;40.60;51.10;;;;;;4957313;29;20066;-61
2022/07/30 09:35:14;;;;;;;6.05;2.40;;;40.80;50.40;;;;;;4957007;29;20031;-60
2022/07/30 09:37:40;;;;;;;5.40;2.45;;;40.60;49.40;;;;;;4956065;29;20031;-61
2022/07/30 09:40:17;;;;;;;5.80;2.38;;;41.10;48.50;;;;;;4957307;29;20028;-60
2022/07/30 09:42:43;;;;;;;4.22;2.65;;;41.70;47.70;;;;;;4958022;29;20019;-61
2022/07/30 09:45:13;;;;;;;5.10;2.42;;;41.50;48.80;;;;;;4957880;29;20027;-61
2022/07/30 09:47:47;;;;;;;7.30;2.65;;;42.30;47.50;;;;;;4957984;28;20071;-59
2022/07/30 09:50:14;;;;;;;3.63;2.63;;;42.70;46.20;;;;;;4957970;29;20105;-57
2022/07/30 09:52:42;;;;;;;4.82;2.53;;;42.40;44.40;;;;;;4957553;29;20027;-61
2022/07/30 09:55:08;;;;;;;4.35;2.45;;;42.10;45.40;;;;;;4956488;29;20031;-61
2022/07/30 09:57:34;;;;;;;10.00;2.47;;;42.20;47.90;;;;;;4956768;29;20083;-61
2022/07/30 10:00:17;;;;;;;2.67;1.85;;;41.60;46.80;;;;;;4955615;29;20097;-61
2022/07/30 10:02:43;;;;;;;4.32;2.03;;;40.80;47.90;;;;;;4956739;29;20016;-60
2022/07/30 10:05:11;;;;;;;4.07;2.00;;;40.70;47.50;;;;;;4971574;28;20035;-61
2022/07/30 10:07:37;;;;;;;6.63;2.80;;;40.70;47.10;;;;;;4955145;28;20031;-61
2022/07/30 10:10:04;;;;;;;3.50;2.10;;;40.10;47.30;;;;;;4956144;29;20051;-61
2022/07/30 10:12:31;;;;;;;5.05;2.17;;;39.40;48.30;;;;;;4954838;29;20031;-61
2022/07/30 10:15:00;;;;;;;9.07;2.55;;;39.00;48.90;;;;;;4956085;29;20039;-61
2022/07/30 10:17:26;;;;;;;5.85;2.30;;;38.20;50.50;;;;;;4955072;29;20027;-61
2022/07/30 10:19:53;;;;;;;5.55;2.30;;;37.30;50.60;;;;;;4954847;29;20028;-61
2022/07/30 10:22:19;;;;;;;6.55;2.30;;;36.50;51.70;;;;;;4970939;28;20130;-61
2022/07/30 10:24:45;;;;;;;2.80;1.80;;;35.90;52.00;;;;;;4956055;29;20102;-61
2022/07/30 10:27:11;;;;;;;3.78;1.90;;;35.90;51.80;;;;;;4954889;29;20474;-61
2022/07/30 10:29:37;;;;;;;2.40;2.20;;;36.60;50.60;;;;;;4955600;29;20078;-61
2022/07/30 10:32:04;;;;;;;3.22;2.38;;;37.70;50.40;;;;;;4955732;29;20027;-61
2022/07/30 10:34:31;;;;;;;9.65;2.33;;;37.90;50.10;;;;;;4970466;28;20065;-61
2022/07/30 10:37:01;;;;;;;4.63;2.10;;;37.50;50.10;;;;;;4955165;29;20123;-61
2022/07/30 10:39:33;;;;;;;3.95;2.70;;;36.80;51.40;;;;;;4955631;29;20015;-61
2022/07/30 10:42:17;;;;;;;7.80;4.70;;;36.50;51.80;;;;;;4955240;29;20027;-61
2022/07/30 10:45:14;;;;;;;4.25;2.30;;;35.90;52.70;;;;;;4954676;29;20478;-61
2022/07/30 10:47:41;;;;;;;3.60;2.45;;;35.70;53.60;;;;;;4954555;29;20458;-61
2022/07/30 10:50:08;;;;;;;3.38;2.40;;;35.40;52.90;;;;;;4956075;29;20031;-61
2022/07/30 10:52:49;;;;;;;11.52;2.75;;;35.00;54.20;;;;;;4956593;29;20031;-61
2022/07/30 10:55:18;;;;;;;14.45;8.50;;;34.90;53.40;;;;;;4955163;29;20078;-61
2022/07/30 10:58:06;;;;;;;21.30;9.82;;;34.60;53.50;;;;;;4956522;28;20055;-59
2022/07/30 11:00:36;;;;;;;33.05;20.40;;;34.20;53.80;;;;;;4956656;29;20066;-61
2022/07/30 11:03:15;;;;;;;15.35;7.47;;;34.00;54.00;;;;;;4955280;28;20027;-61
2022/07/30 11:05:42;;;;;;;8.25;5.90;;;33.80;54.00;;;;;;4955435;29;20560;-61
2022/07/30 11:08:32;;;;;;;4.50;3.70;;;33.40;55.40;;;;;;4955548;29;20047;-60
2022/07/30 11:10:58;;;;;;;8.90;4.65;;;33.10;56.40;;;;;;4955597;29;20023;-61
2022/07/30 11:13:50;;;;;;;7.55;3.88;;;33.00;57.10;;;;;;4955523;29;20031;-61
2022/07/30 11:16:19;;;;;;;5.28;3.17;;;32.80;56.90;;;;;;4955261;29;20059;-61
2022/07/30 11:19:04;;;;;;;5.60;3.38;;;32.40;57.30;;;;;;4955299;29;20114;-61
2022/07/30 11:21:31;;;;;;;6.28;3.20;;;32.10;58.20;;;;;;4956905;29;20037;-61
2022/07/30 11:23:57;;;;;;;4.75;3.15;;;32.00;58.10;;;;;;4955452;28;20047;-60
2022/07/30 11:26:38;;;;;;;8.95;2.70;;;31.80;58.30;;;;;;4955391;28;20034;-61
2022/07/30 11:29:05;;;;;;;5.65;2.78;;;31.70;58.40;;;;;;4956445;29;20038;-61
2022/07/30 11:31:33;;;;;;;5.97;2.65;;;31.60;58.60;;;;;;4955667;29;20055;-61
2022/07/30 11:34:18;;;;;;;4.07;2.90;;;31.40;59.00;;;;;;4955383;29;20106;-56
2022/07/30 11:37:13;;;;;;;6.82;3.15;;;31.10;59.60;;;;;;4955430;29;20100;-59
2022/07/30 11:39:54;;;;;;;9.27;3.25;;;31.10;59.30;;;;;;4955247;29;20020;-61
2022/07/30 11:42:27;;;;;;;;;;;31.40;59.50;;;;;;4955697;29;20544;-61
2022/07/30 11:45:13;;;;;;;7.95;4.32;;;31.60;60.60;;;;;;4954845;28;19918;-61
2022/07/30 11:47:38;;;;;;;11.45;5.25;;;31.70;59.80;;;;;;4956051;28;20051;-61
2022/07/30 11:50:05;;;;;;;13.07;7.65;;;31.60;59.40;;;;;;4954651;29;20040;-61
2022/07/30 11:52:32;;;;;;;8.20;4.30;;;31.40;59.10;;;;;;4956225;29;20028;-61
2022/07/30 11:54:57;;;;;;;10.30;5.20;;;31.30;59.60;;;;;;4955276;29;20162;-61
2022/07/30 11:57:41;;;;;;;7.45;4.85;;;31.30;60.00;;;;;;4954696;29;20121;-60
2022/07/30 12:00:08;;;;;;;7.55;5.32;;;31.40;59.90;;;;;;4955887;29;20078;-61
2022/07/30 12:02:33;;;;;;;20.83;8.85;;;31.60;59.60;;;;;;4956234;29;20026;-61
2022/07/30 12:04:59;;;;;;;6.38;3.95;;;31.60;59.40;;;;;;4955093;29;20020;-61
2022/07/30 12:07:24;;;;;;;5.47;4.00;;;31.70;59.10;;;;;;4955926;29;20479;-61
2022/07/30 12:09:50;;;;;;;5.53;3.70;;;31.70;59.20;;;;;;4956925;28;20083;-61
2022/07/30 12:12:23;;;;;;;5.97;3.75;;;31.40;59.10;;;;;;4959565;29;20027;-60
2022/07/30 12:14:50;;;;;;;4.25;3.30;;;31.40;59.90;;;;;;4959354;29;20034;-61
2022/07/30 12:17:15;;;;;;;8.15;3.53;;;31.30;58.50;;;;;;4958365;28;20031;-61
2022/07/30 12:19:45;;;;;;;8.15;3.60;;;31.40;57.70;;;;;;4959549;29;20103;-61
2022/07/30 12:22:10;;;;;;;7.88;3.58;;;31.60;58.60;;;;;;4957705;29;20026;-61
2022/07/30 12:24:36;;;;;;;5.35;3.35;;;31.60;57.20;;;;;;4958447;28;20114;-61
2022/07/30 12:27:06;;;;;;;7.15;3.95;;;31.40;58.40;;;;;;4957924;29;20036;-61
2022/07/30 12:29:35;;;;;;;6.20;3.87;;;31.40;58.50;;;;;;4957809;29;20030;-60
2022/07/30 12:32:01;;;;;;;5.63;3.50;;;31.30;58.90;;;;;;4959202;29;20030;-61
2022/07/30 12:34:27;;;;;;;5.18;3.17;;;31.20;58.00;;;;;;4957822;29;20510;-61
2022/07/30 12:36:53;;;;;;;7.65;3.70;;;31.20;58.80;;;;;;4957322;29;20035;-61
2022/07/30 12:39:26;;;;;;;5.00;3.83;;;31.20;59.30;;;;;;4958551;29;20024;-61
2022/07/30 12:41:54;;;;;;;7.20;4.38;;;31.40;58.90;;;;;;4957566;29;20023;-61
2022/07/30 12:44:40;;;;;;;5.35;3.60;;;31.50;58.70;;;;;;4958936;29;20024;-61
2022/07/30 12:47:22;;;;;;;6.22;4.03;;;31.60;58.70;;;;;;4957469;29;20038;-60
2022/07/30 12:49:48;;;;;;;6.78;4.32;;;31.60;58.20;;;;;;4973301;28;20046;-61
2022/07/30 12:52:26;;;;;;;5.65;3.92;;;31.60;58.30;;;;;;4957460;29;20035;-61
2022/07/30 12:55:05;;;;;;;11.88;4.05;;;31.60;58.10;;;;;;4957239;29;20042;-61